LFBT/LDE METAR and TAF weather

Enter ICAO airport designator
Station Type Date Time Source
LFBT METAR 2020/01/23 18:30 UTC NOAA

LFBT 231830Z AUTO 13003KT CAVOK 05/03 Q1019 NOSIG


Station Type Date Time Source
LFBT Decoded METAR 2020/01/23 18:30 UTC NOAA

Tarbes Ossun Lourdes, France (LFBT) 43-11N 000-00W 363M
Jan 23, 2020 - 01:30 PM EST / 2020.01.23 1830 UTC
Wind: from the SE (130 degrees) at 3 MPH (3 KT):0
Visibility: greater than 7 mile(s):0
Temperature: 41 F (5 C)
Dew Point: 37 F (3 C)
Relative Humidity: 86%
Pressure (altimeter): 30.09 in. Hg (1019 hPa)
ob: LFBT 231830Z AUTO 13003KT CAVOK 05/03 Q1019 NOSIG
cycle: 18

Station Type Date Time Source
LFBT TAF 2020/01/23 18:21 UTC NOAA

TAF LFBT 231700Z 2318/2418 VRB03KT CAVOK PROB30
TEMPO 2404/2407 4000 BR

Example: see airport list